Terminal Aerodrome Forecast
Issued by NWS North Platte, NE

Home | Current Version | Previous Version | Graphics & Text | Print | Product List | Glossary On
Versions: 1 2 3 4 5 6 7 8 9 10 11 12 13 14 15 16 17
000
FTUS43 KLBF 181000 AAA
TAFVTN
TAF AMD
KVTN 181019Z 1810/1906 19012G19KT P6SM SCT120
     FM181600 19024G32KT P6SM SCT250=

USA.gov is the U.S. government's official web portal to all federal, state and local government web resources and services.